DRI-NNSC Building Weather observations

Data are for 10 minute period ending at time listed.
 Day   Time   Solar   Ave.   Ave.  Ave.  Vector  Max.   Baro.   Total    
  of    of     Rad.   Air    Rel.  Wind   Wind   Wind  Press.  Precip.   
Year   Day            Temp.  Hum.  Speed  Dir.   Gust                    
2016   (PST)  Kw/m2    F      %     mph   deg.    mph    mb.     in.     
-------------------------------------------------------------------------
 151   17:10   0.38   81.2     0    6.5   317     13   849.2    0.00 
 151   17:20   0.35   81.6     0    4.5   304     10   849.1    0.00 
 151   17:30   0.20   80.6     0    5.4   339     11   849.1    0.00 
 151   17:40   0.22   79.4     0    6.9     1     12   849.2    0.00 
 151   17:50   0.25   78.1     0    9.8    27     16   849.2    0.00 
 151   18:00   0.27   78.1     0   12.1    29     19   849.2    0.00 
 151   18:10   0.20   77.5     0   12.8    32     18   849.2    0.00 
 151   18:20   0.15   77.0     0   12.9    34     19   849.3    0.00 
 151   18:30   0.12   76.5     0   12.7    31     18   849.4    0.00 
 151   18:40   0.10   75.8     0   11.4    32     16   849.4    0.00 
 151   18:50   0.07   75.2     0   11.4    28     15   849.4    0.00 
 151   19:00   0.04   74.7     0   11.6    28     16   849.4    0.00 
 151   19:10   0.02   74.2     0    9.6    25     15   849.4    0.00 
 151   19:20   0.01   73.6     0    9.3    21     14   849.4    0.00 
 151   19:30   0.00   73.0     0    8.3    13     14   849.6    0.00 
 151   19:40   0.00   73.0     0    7.3   349     12   849.7    0.00 
 151   19:50   0.00   72.2     0    7.3   338     12   849.8    0.00 
 151   20:00   0.00   72.2     0    7.2   352     12   849.9    0.00 
 151   20:10   0.00   72.2     0    7.6   357     12   850.0    0.00 
 151   20:20   0.00   71.9     0    6.0   347     10   850.1    0.00 
 151   20:30   0.00   71.1     0    6.9   340     10   850.1    0.00 
 151   20:40   0.00   70.3     0    6.5   338     11   850.2    0.00 
 151   20:50   0.00   70.1     0    6.9   342     12   850.3    0.00 
 151   21:00   0.00   69.9     0    7.3   341     11   850.3    0.00 
 151   21:10   0.00   69.5     0    7.5   342     11   850.4    0.00 
 151   21:20   0.00   69.6     0    8.3   344     12   850.4    0.00 
 151   21:30   0.00   69.2     0    7.9   348     13   850.4    0.00 
 151   21:40   0.00   69.0     0    8.0   352     12   850.5    0.00 
 151   21:50   0.00   69.3     0    6.9   354     11   850.5    0.00 
 151   22:00   0.00   69.3     0    5.9   351     10   850.5    0.00 
 151   22:10   0.00   66.7     0    3.9   278      6   850.5    0.00 
 151   22:20   0.00   65.3     0    4.1   282      6   850.5    0.00 
 151   22:30   0.00   64.4     0    4.4   298      7   850.5    0.00 
 151   22:40   0.00   63.4     0    3.7   314      6   850.4    0.00 
 151   22:50   0.00   64.5     0    4.1   324      7   850.3    0.00 
 151   23:00   0.00   66.5     0    6.3   339     12   850.3    0.00 
 151   23:10   0.00   66.8     0    9.0   346     14   850.3    0.00 
 151   23:20   0.00   66.8     0   10.6   341     16   850.3    0.00 
 151   23:30   0.00   66.0     0   10.2   342     16   850.3    0.00 
 151   23:40   0.00   65.7     0    8.8   348     15   850.3    0.00 
 151   23:50   0.00   65.5     0    8.9   348     14   850.3    0.00 
 152    0:00   0.00   65.7     0    8.4   350     14   850.3    0.00 
 152    0:10   0.00   65.9     0    8.1   350     12   850.4    0.00 
 152    0:20   0.00   65.6     0    7.6   344     12   850.4    0.00 
 152    0:30   0.00   65.1     0    6.0   345     10   850.5    0.00 
 152    0:40   0.00   64.7     0    7.0   342     13   850.4    0.00 
 152    0:50   0.00   64.6     0    8.1   348     13   850.4    0.00 
 152    1:00   0.00   64.5     0    9.2   348     14   850.4    0.00 
 152    1:10   0.00   64.6     0   10.2   344     16   850.4    0.00 
 152    1:20   0.00   64.6     0    9.2   348     15   850.5    0.00 
 152    1:30   0.00   64.5     0    8.9   353     14   850.5    0.00 
 152    1:40   0.00   64.0     0    8.9   352     13   850.5    0.00 
 152    1:50   0.00   63.7     0    5.6   353     12   850.6    0.00 
 152    2:00   0.00   61.3     0    0.8   207      2   850.6    0.00 
 152    2:10   0.00   61.4     0    4.1   340      9   850.7    0.00 
 152    2:20   0.00   63.0     0    6.7   347     10   850.7    0.00 
 152    2:30   0.00   62.8     0    6.9   347     10   850.6    0.00 
 152    2:40   0.00   62.1     0    6.7   349     10   850.6    0.00 
 152    2:50   0.00   61.8     0    6.5   350     10   850.6    0.00 
 152    3:00   0.00   62.1     0    6.6   351     11   850.6    0.00 
 152    3:10   0.00   62.3     0    6.5   352     10   850.6    0.00 
 152    3:20   0.00   61.9     0    3.8    24      7   850.6    0.00 
 152    3:30   0.00   60.3     0    3.0    51      5   850.6    0.00 
 152    3:40   0.00   58.7     0    3.7    67      5   850.6    0.00 
 152    3:50   0.00   58.9     0    3.3    36      5   850.7    0.00 
 152    4:00   0.00   59.4     0    2.0   291      3   850.7    0.00 
 152    4:10   0.00   59.0     0    2.6   294      5   850.7    0.00 
 152    4:20   0.00   58.2     0    2.9   334      5   850.7    0.00 
 152    4:30   0.00   59.4     0    1.8    47      2   850.7    0.00 
 152    4:40   0.00   58.2     0    1.1   116      3   850.7    0.00 
 152    4:50   0.01   56.9     0    1.8   102      3   850.8    0.00 
 152    5:00   0.01   56.8     0    1.7    24      2   850.9    0.00 
 152    5:10   0.01   57.5     0    0.4   174      2   851.0    0.00 
 152    5:20   0.03   58.2     0    0.5     0      1   851.0    0.00 
 152    5:30   0.06   58.6     0    0.6    69      2   851.1    0.00 
 152    5:40   0.10   60.2     0    0.9    38      2   851.2    0.00 
 152    5:50   0.14   60.9     0    1.4    51      2   851.2    0.00 
 152    6:00   0.17   62.7     0    0.5   190      1   851.3    0.00 
 152    6:10   0.20   62.1     0    0.7   197      1   851.4    0.00 
 152    6:20   0.23   63.3     0    0.1   198      1   851.4    0.00 
 152    6:30   0.26   65.6     0    0.2   106      1   851.5    0.00 
 152    6:40   0.29   64.7     0    1.3   161      2   851.5    0.00 
 152    6:50   0.34   64.5     0    1.3   121      2   851.4    0.00 
 152    7:00   0.34   64.9     0    1.3   114      3   851.5    0.00 
 152    7:10   0.37   65.4     0    1.9   164      4   851.6    0.00 
 152    7:20   0.38   64.8     0    2.3   167      4   851.6    0.00 
 152    7:30   0.11   64.4     0    2.2   168      4   851.6    0.00 
 152    7:40   0.32   64.8     0    1.6   164      4   851.6    0.00 
 152    7:50   0.47   65.7     0    2.0   165      4   851.6    0.00 
 152    8:00   0.46   67.2     0    1.2   162      2   851.5    0.00 
 152    8:10   0.56   68.1     0    0.4   154      3   851.5    0.00 
 152    8:20   0.63   69.7     0    1.6   152      5   851.4    0.00 
 152    8:30   0.66   70.0     0    1.7   168      4   851.4    0.00 
 152    8:40   0.67   70.2     0    4.4   134      9   851.3    0.00 
 152    8:50   0.69   70.2     0    5.2   124     10   851.3    0.00 
 152    9:00   0.72   71.2     0    5.0   134     10   851.2    0.00 
 152    9:10   0.75   71.7     0    6.3   103     13   851.1    0.00 
 152    9:20   0.77   71.5     0    7.0   112     12   851.1    0.00 
 152    9:30   0.80   72.3     0    6.8   118     12   851.0    0.00 
 152    9:40   0.82   73.3     0    5.9   145     10   850.9    0.00 
 152    9:50   0.84   73.8     0    4.4   153      9   850.9    0.00 
 152   10:00   0.85   74.2     0    5.2   140     13   850.9    0.00 
 152   10:10   0.87   75.1     0    5.4   165     11   850.8    0.00 
 152   10:20   0.89   74.9     0    5.2   172     10   850.7    0.00 
 152   10:30   0.91   74.9     0    5.3   105     10   850.7    0.00 
 152   10:40   0.93   75.0     0    5.4   120     10   850.6    0.00 
 152   10:50   0.94   75.9     0    6.7   137     11   850.6    0.00 
 152   11:00   0.95   76.0     0    5.2   118     11   850.5    0.00 
 152   11:10   0.96   76.4     0    6.3   118     14   850.4    0.00 
 152   11:20   0.96   77.0     0    4.0   154     11   850.4    0.00 
 152   11:30   0.96   77.7     0    5.2   144     10   850.2    0.00 
 152   11:40   0.97   77.7     0    4.4    40     10   850.1    0.00 
 152   11:50   0.98   77.1     0    8.2   110     17   850.0    0.00 
 152   12:00   0.98   78.0     0    6.9   118     17   849.9    0.00 
 152   12:10   0.98   78.5     0    5.7   122     10   849.9    0.00 
 152   12:20   0.97   78.3     0    5.2    56     10   849.8    0.00 
 152   12:30   0.97   78.9     0    5.9    99     13   849.7    0.00 
 152   12:40   0.97   79.5     0    7.2   123     17   849.6    0.00 
 152   12:50   0.96   79.4     0    6.8   116     16   849.5    0.00 
 152   13:00   0.96   79.6     0    5.0   116     13   849.4    0.00 
 152   13:10   0.95   80.0     0    5.8   114     12   849.4    0.00 
 152   13:20   0.94   80.6     0    7.2   136     15   849.3    0.00 
 152   13:30   0.93   80.1     0    4.4   139     11   849.2    0.00 
 152   13:40   0.92   80.2     0    3.8   139     10   849.1    0.00 
 152   13:50   0.91   81.8     0    1.9   236      6   849.0    0.00 
 152   14:00   0.89   81.0     0    5.1   264      9   849.0    0.00 
 152   14:10   0.87   80.8     0    3.7   317      7   848.9    0.00 
 152   14:20   0.85   81.7     0    2.8   292      8   848.7    0.00 
 152   14:30   0.83   82.0     0    3.4   358      9   848.6    0.00 
 152   14:40   0.81   82.7     0    4.2   356      9   848.5    0.00 
 152   14:50   0.79   82.3     0    4.8    87      9   848.4    0.00 
 152   15:00   0.76   82.5     0    5.5   149     13   848.4    0.00 
 152   15:10   0.74   83.4     0    6.2   177     12   848.9    0.00 
 152   15:20   0.71   84.1     0    3.8   172     10   848.7    0.00 
 152   15:30   0.68   83.7     0    4.0   200     10   848.8    0.00 
 152   15:40   0.65   82.5     0    4.6   176     10   848.4    0.00 
 152   15:50   0.62   83.2     0    4.0   167      9   848.2    0.00 
 152   16:00   0.59   83.4     0    2.5    41      7   848.1    0.00 
 152   16:10   0.56   82.8     0    4.0    18      8   848.0    0.00 
 152   16:20   0.53   84.2     0    2.9   346     11   848.0    0.00 
 152   16:30   0.50   84.0     0    1.6   234      4   848.0    0.00 
 152   16:40   0.47   83.8     0    4.8    34     12   847.9    0.00 
 152   16:50   0.43   83.2     0    5.5    18      9   847.9    0.00 
 152   17:00   0.40   83.3     0    6.2   350     10   847.8    0.00 

Return to NNSC graphs page.


Western Regional Climate Center,wrcc@dri.edu